• Join FlightAware (Why Join?)
  • Login
  • US Flag 
07:22PM EDT


 

Airport Tracker/Info


-or-


 

Live Flight TrackerFlight Track Log ✈ FLG3757 ✈ 17-Jan-2014 ✈ KBGM - KDTW

Flight Track Log - Related Links

Times and Time Zones

All times are in EST time to prevent confusion due to time zone crossing. See the FLG3757 flight status page for this flight to view local times or setup timezone preferences in your user account.

Time Position Orientation Groundspeed Altitude Reporting Facility
EST Latitude Longitude Course Direction KTS MPH feet Rate Location/Type
06:26AM 42.1742 -75.9614 245° Southwest 152 175 3,100  Level New York Center
06:27AM 42.1553 -76.0158 245° Southwest 194 223 5,100 2,160 Climbing New York Center
06:28AM 42.1828 -76.0992 294° West 214 246 7,500 2,400 Climbing New York Center
06:29AM 42.2100 -76.1881 292° West 232 267 10,000 1,800 Climbing New York Center
06:30AM 42.2408 -76.2886 293° West 267 307 11,100 960 Climbing New York Center
06:31AM 42.2747 -76.4064 291° West 306 352 12,000 1,140 Climbing New York Center
06:32AM 42.3111 -76.5161 294° West 335 386 13,400 1,620 Climbing New York Center
06:33AM 42.3708 -76.7169 292° West 368 423 16,100 1,740 Climbing Cleveland Center
06:34AM 42.4094 -76.8472 292° West 373 429 17,800 1,680 Climbing Cleveland Center
06:35AM 42.4481 -76.9744 292° West 369 425 19,600 1,560 Climbing Cleveland Center
06:36AM 42.4758 -77.1031 286° West 360 414 21,000 1,140 Climbing Cleveland Center
06:37AM 42.4864 -77.2367 276° West 358 412 22,000 960 Climbing Cleveland Center
06:38AM 42.4967 -77.3708 276° West 358 412 23,000 960 Climbing Cleveland Center
06:39AM 42.5072 -77.5047 276° West 358 412 24,000 960 Climbing Cleveland Center
06:41AM 42.5164 -77.6361 275° West 353 406 25,000 960 Climbing Cleveland Center
06:42AM 42.5272 -77.7650 277° West 347 399 26,000 780 Climbing Cleveland Center
06:43AM 42.5361 -77.9033 275° West 348 400 26,700 540 Climbing Cleveland Center
06:44AM 42.5453 -78.0381 275° West 356 410 27,200 480 Climbing Cleveland Center
06:45AM 42.5511 -78.1753 273° West 363 418 27,700 360 Climbing Cleveland Center
06:46AM 42.5561 -78.3106 273° West 361 415 28,000 120 Climbing Cleveland Center
06:47AM 42.5603 -78.4508 272° West 371 427 28,000  Level Cleveland Center
06:48AM 42.5667 -78.5994 273° West 395 455 28,000  Level Cleveland Center
06:49AM 42.5722 -78.7764 273° West 394 453 28,000  Level Cleveland Center
06:50AM 42.5781 -78.9250 273° West 396 456 28,000  Level Cleveland Center
06:51AM 42.5808 -79.0767 271° West 402 463 28,000  Level Cleveland Center
06:52AM 42.5864 -79.2286 273° West 406 467 28,000  Level Cleveland Center
06:53AM 42.5903 -79.3808 272° West 405 466 28,000  Level Cleveland Center
06:54AM 42.5939 -79.5344 272° West 409 471 28,000  Level Cleveland Center
06:55AM 42.5978 -79.6886 272° West 410 472 28,000  Level Cleveland Center
06:56AM 42.6014 -79.8442 272° West 414 476 28,000  Level Cleveland Center
06:57AM 42.6039 -80.0117 271° West 409 471 28,000  Level Cleveland Center
06:58AM 42.6069 -80.1706 272° West 417 480 28,000  Level Cleveland Center
06:59AM 42.6097 -80.3286 271° West 416 479 28,000  Level Cleveland Center
07:00AM 42.6128 -80.4875 272° West 419 482 28,000  Level Cleveland Center
07:01AM 42.6142 -80.6461 271° West 419 482 28,000  Level Cleveland Center
07:02AM 42.6175 -80.8083 272° West 427 491 28,000  Level Cleveland Center
07:03AM 42.6200 -80.9669 271° West 420 483 28,000 -240 Level Cleveland Center
07:04AM 42.6217 -81.1269 271° West 420 483 27,600 -720 Descending Cleveland Center
07:05AM 42.6239 -81.2856 271° West 420 483 26,600 -1,080 Descending Cleveland Center
07:06AM 42.6253 -81.4667 271° West 411 473 25,400 -1,140 Descending Cleveland Center
07:07AM 42.6214 -81.6244 268° West 415 478 24,400 -1,440 Descending Cleveland Center
07:08AM 42.6025 -81.7786 261° West 413 475 22,500 -1,860 Descending Cleveland Center
07:09AM 42.5881 -81.9039 261° West 387 445 20,700 -1,920 Descending Cleveland Center
07:10AM 42.5717 -82.0408 261° West 373 429 18,700 -2,100 Descending Cleveland Center
07:11AM 42.5514 -82.2056 261° West 371 427 16,400 -2,100 Descending Cleveland Center
07:12AM 42.5400 -82.2958 260° West 354 407 15,100 -1,800 Descending Cleveland Center
07:12AM 42.5350 -82.3350 260° West 343 395 14,600 -1,620 Descending Cleveland Center
07:12AM 42.5344 -82.3364 242° Southwest 360 414 14,600 -1,800 Level Cleveland Center
07:13AM 42.5178 -82.4631 260° West 345 397 12,800 -1,800 Descending Cleveland Center
07:13AM 42.5194 -82.4619 26° Northeast 345 397 12,800 -840 Level Cleveland Center
07:14AM 42.4925 -82.5842 253° West 338 389 12,000 -840 Descending Cleveland Center
07:14AM 42.4950 -82.5839 North 340 391 12,000 -900 Level Cleveland Center
07:15AM 42.4556 -82.6925 244° Southwest 304 350 11,100 -900 Descending Cleveland Center
07:15AM 42.4561 -82.6906 69° East 324 373 11,100 -1,200 Level Cleveland Center
07:16AM 42.4211 -82.7925 245° Southwest 272 313 9,900 -1,140 Descending Cleveland Center
07:16AM 42.4225 -82.7850 76° East 291 335 10,000 -1,380 Climbing Cleveland Center
07:17AM 42.4103 -82.8844 261° West 248 285 8,500 -1,380 Descending Cleveland Center
07:17AM 42.4117 -82.8758 78° East 257 296 8,600 -1,500 Climbing Cleveland Center
07:18AM 42.3994 -82.9733 260° West 244 281 7,000 -1,500 Descending Cleveland Center
07:18AM 42.4017 -82.9658 68° East 245 282 7,100 -1,020 Climbing Cleveland Center
07:19AM 42.3825 -83.0586 254° West 236 272 6,000 -1,200 Descending Cleveland Center
07:19AM 42.3800 -83.0683 251° West 239 275 5,900 -900 Descending Cleveland Center
07:20AM 42.3622 -83.1525 254° West 236 272 5,000 -1,080 Descending Cleveland Center
07:21AM 42.3367 -83.2217 243° Southwest 209 241 3,800 -1,260 Descending Cleveland Center
07:21AM 42.3361 -83.2233 246° West 215 247 3,700 -1,140 Descending Cleveland Center
07:22AM 42.3014 -83.2733 227° Southwest 173 199 2,700 -1,140 Descending Cleveland Center
07:22AM 42.3011 -83.2747 255° West 190 219 2,600 -900 Descending Cleveland Center
07:23AM 42.2658 -83.2994 207° Southwest 133 153 1,800 -780 Descending Cleveland Center
07:23AM 42.2658 -83.3011 270° West 162 186 1,800 -720 Level Cleveland Center
07:24AM 42.2322 -83.3258 209° Southwest 126 145 1,000 -600 Descending Cleveland Center
07:24AM 42.2314 -83.3253 154° Southeast 143 165 1,200 3,960 Climbing Cleveland Center
07:26AM 42.2124 -83.3534 236° Southwest  Level Estimated
07:33AM 42.2124 -83.3534 236° Southwest  Level Estimated
07:34AM 42.2124 -83.3534 236° Southwest  Level Estimated